Time;durP1;ratioP1;P1;durP2;ratioP2;P2;SDS_P1;SDS_P2;PMS_P1;PMS_P2;Temp;Humidity;BMP_temperature;BMP_pressure;BME280_temperature;BME280_humidity;BME280_pressure;Samples;Min_cycle;Max_cycle;Signal;HPM_P1;HPM_P2
2021/11/10 00:01:51;;;;;;;2.00;1.27;;;22.90;49.20;;;;;;5033347;28;20137;-56
2021/11/10 00:04:19;;;;;;;1.70;1.17;;;22.90;49.20;;;;;;5038549;28;20032;-59
2021/11/10 00:06:45;;;;;;;1.63;1.13;;;22.90;49.20;;;;;;5040566;28;20094;-58
2021/11/10 00:09:11;;;;;;;1.77;1.10;;;22.80;49.20;;;;;;5034715;28;20029;-58
2021/11/10 00:11:36;;;;;;;2.10;1.23;;;22.80;49.30;;;;;;5034723;28;20032;-57
2021/11/10 00:14:02;;;;;;;1.80;1.05;;;22.80;49.30;;;;;;5037884;28;20025;-59
2021/11/10 00:16:28;;;;;;;1.88;1.10;;;22.80;49.80;;;;;;5034544;28;20091;-59
2021/11/10 00:18:55;;;;;;;1.83;1.10;;;22.70;49.30;;;;;;5039486;28;20122;-60
2021/11/10 00:21:23;;;;;;;2.53;1.30;;;22.70;49.30;;;;;;5037158;28;20033;-59
2021/11/10 00:23:48;;;;;;;1.92;1.30;;;22.70;49.30;;;;;;5038537;28;20040;-56
2021/11/10 00:26:14;;;;;;;1.92;1.13;;;22.70;49.40;;;;;;5030168;28;20087;-59
2021/11/10 00:28:40;;;;;;;2.10;1.10;;;22.60;49.30;;;;;;5037476;28;20444;-54
2021/11/10 00:31:06;;;;;;;1.95;1.02;;;22.60;49.40;;;;;;5031199;28;20382;-59
2021/11/10 00:33:32;;;;;;;2.28;1.25;;;22.60;49.40;;;;;;5033554;28;20028;-58
2021/11/10 00:35:58;;;;;;;2.78;1.08;;;22.60;49.40;;;;;;5036116;28;20022;-56
2021/11/10 00:38:24;;;;;;;1.77;1.10;;;22.60;49.50;;;;;;5033537;28;20490;-57
2021/11/10 00:40:50;;;;;;;2.03;1.15;;;22.50;49.50;;;;;;5035591;28;20747;-59
2021/11/10 00:43:16;;;;;;;1.83;1.15;;;22.50;49.40;;;;;;5039793;28;20029;-59
2021/11/10 00:45:41;;;;;;;1.92;1.05;;;22.50;49.50;;;;;;5036290;28;20139;-55
2021/11/10 00:48:07;;;;;;;1.98;1.30;;;22.50;49.50;;;;;;5034333;28;20036;-55
2021/11/10 00:50:34;;;;;;;2.10;1.35;;;22.50;49.50;;;;;;5038014;28;20052;-55
2021/11/10 00:53:00;;;;;;;2.33;1.20;;;22.50;49.50;;;;;;5032742;28;20162;-53
2021/11/10 00:55:26;;;;;;;2.25;1.05;;;22.50;49.50;;;;;;5032756;28;20029;-58
2021/11/10 00:57:51;;;;;;;2.00;1.10;;;22.40;49.50;;;;;;5030272;28;20024;-59
2021/11/10 01:00:18;;;;;;;2.65;1.20;;;22.40;49.50;;;;;;5037692;28;20025;-56
2021/11/10 01:02:44;;;;;;;1.95;1.20;;;22.40;50.10;;;;;;5033475;28;20118;-57
2021/11/10 01:05:11;;;;;;;1.80;1.10;;;22.40;49.60;;;;;;5029032;28;20021;-56
2021/11/10 01:07:37;;;;;;;2.15;1.10;;;22.30;49.60;;;;;;5037483;28;20032;-59
2021/11/10 01:10:05;;;;;;;1.48;1.00;;;22.30;49.60;;;;;;5034122;28;20029;-59
2021/11/10 01:12:31;;;;;;;1.70;1.08;;;22.30;49.60;;;;;;5030572;28;20547;-59
2021/11/10 01:14:58;;;;;;;2.17;1.10;;;22.30;49.60;;;;;;5033989;28;20025;-59
2021/11/10 01:17:23;;;;;;;2.08;1.20;;;22.30;49.70;;;;;;5030249;28;20148;-57
2021/11/10 01:19:49;;;;;;;1.38;1.02;;;22.30;49.70;;;;;;5034647;28;20112;-56
2021/11/10 01:22:16;;;;;;;2.00;1.13;;;22.20;49.60;;;;;;5035689;28;20762;-57
2021/11/10 01:24:42;;;;;;;2.38;1.10;;;22.20;49.70;;;;;;5034619;28;20553;-58
2021/11/10 01:27:08;;;;;;;1.75;1.00;;;22.20;49.70;;;;;;5030687;28;20059;-58
2021/11/10 01:29:34;;;;;;;1.58;1.13;;;22.20;49.70;;;;;;5032350;28;20175;-54
2021/11/10 01:32:00;;;;;;;1.90;1.10;;;22.20;49.70;;;;;;5030023;28;20057;-56
2021/11/10 01:34:26;;;;;;;1.92;1.20;;;22.20;49.80;;;;;;5029939;28;20029;-58
2021/11/10 01:36:52;;;;;;;2.35;1.30;;;22.10;49.70;;;;;;5032592;28;20029;-58
2021/11/10 01:39:17;;;;;;;2.40;1.08;;;22.10;49.70;;;;;;5036146;28;20959;-57
2021/11/10 01:41:48;;;;;;;1.90;1.05;;;22.10;49.80;;;;;;5034436;28;20029;-58
2021/11/10 01:44:19;;;;;;;1.42;1.08;;;22.10;49.80;;;;;;5033004;28;20076;-58
2021/11/10 01:46:44;;;;;;;1.80;1.20;;;22.10;49.80;;;;;;5032028;28;20033;-56
2021/11/10 01:49:11;;;;;;;1.83;1.10;;;22.10;49.90;;;;;;5034948;28;20029;-56
2021/11/10 01:51:54;;;;;;;1.70;1.10;;;22.00;49.80;;;;;;5035312;28;20047;-58
2021/11/10 01:54:22;;;;;;;2.00;1.27;;;22.00;49.80;;;;;;5031769;28;20079;-57
2021/11/10 01:56:49;;;;;;;1.92;1.20;;;22.00;49.80;;;;;;5028688;28;20041;-58
2021/11/10 01:59:34;;;;;;;1.83;1.10;;;22.00;49.90;;;;;;5035784;28;20041;-58
2021/11/10 02:02:01;;;;;;;1.80;1.10;;;22.00;49.90;;;;;;5037148;28;20040;-59
2021/11/10 02:04:28;;;;;;;1.50;1.10;;;22.00;49.90;;;;;;5031918;28;20878;-55
2021/11/10 02:06:53;;;;;;;1.55;1.00;;;21.90;49.90;;;;;;5033341;28;20036;-58
2021/11/10 02:09:24;;;;;;;2.50;1.27;;;21.90;49.90;;;;;;5033447;28;20076;-55
2021/11/10 02:11:52;;;;;;;2.03;1.20;;;21.90;50.00;;;;;;5036116;28;20035;-59
2021/11/10 02:14:22;;;;;;;1.73;1.15;;;21.90;50.00;;;;;;5033131;28;20079;-57
2021/11/10 02:16:49;;;;;;;2.05;1.20;;;21.90;50.00;;;;;;5033175;28;20033;-59
2021/11/10 02:19:15;;;;;;;1.70;1.10;;;21.90;50.00;;;;;;5035867;28;20524;-55
2021/11/10 02:21:46;;;;;;;1.10;0.90;;;21.90;50.00;;;;;;5038582;28;20040;-59
2021/11/10 02:24:12;;;;;;;1.80;1.20;;;21.80;50.00;;;;;;5035166;28;20724;-59
2021/11/10 02:26:38;;;;;;;1.40;0.95;;;21.80;50.60;;;;;;5024640;28;20125;-58
2021/11/10 02:29:05;;;;;;;1.73;1.08;;;21.80;50.00;;;;;;5032499;28;20025;-59
2021/11/10 02:31:34;;;;;;;1.48;1.08;;;21.80;50.10;;;;;;5038091;28;20143;-56
2021/11/10 02:34:01;;;;;;;1.88;1.27;;;21.80;50.10;;;;;;5038142;28;20040;-54
2021/11/10 02:36:27;;;;;;;1.48;1.00;;;21.80;50.10;;;;;;5038161;28;20033;-58
2021/11/10 02:38:53;;;;;;;1.42;1.08;;;21.70;50.10;;;;;;5036733;28;20040;-58
2021/11/10 02:41:19;;;;;;;2.22;1.20;;;21.80;50.20;;;;;;5033158;28;20029;-57
2021/11/10 02:43:45;;;;;;;1.80;1.10;;;21.80;50.20;;;;;;5038995;28;20037;-59
2021/11/10 02:46:10;;;;;;;1.80;1.20;;;21.70;50.10;;;;;;5034064;28;20037;-51
2021/11/10 02:48:36;;;;;;;2.08;1.20;;;21.70;50.10;;;;;;5035593;28;20064;-59
2021/11/10 02:51:06;;;;;;;1.90;1.10;;;21.70;50.10;;;;;;5039291;28;23287;-58
2021/11/10 02:53:33;;;;;;;1.92;1.10;;;21.70;50.10;;;;;;5035892;28;20038;-59
2021/11/10 02:55:59;;;;;;;1.60;1.00;;;21.70;50.20;;;;;;5031322;28;20009;-59
2021/11/10 02:58:24;;;;;;;1.55;1.10;;;21.70;50.20;;;;;;5031222;28;22245;-55
2021/11/10 03:00:50;;;;;;;1.83;1.20;;;21.60;50.20;;;;;;5037467;28;20373;-59
2021/11/10 03:03:16;;;;;;;1.63;1.10;;;21.60;50.20;;;;;;5034431;28;20033;-56
2021/11/10 03:05:47;;;;;;;1.83;1.10;;;21.60;50.20;;;;;;5034174;28;20037;-58
2021/11/10 03:08:16;;;;;;;1.75;1.20;;;21.60;50.30;;;;;;5033363;28;20116;-58
2021/11/10 03:10:42;;;;;;;2.30;1.33;;;21.60;50.30;;;;;;5040633;28;20060;-58
2021/11/10 03:13:08;;;;;;;1.88;1.10;;;21.60;50.30;;;;;;5034112;28;20529;-60
2021/11/10 03:15:38;;;;;;;1.75;1.10;;;21.60;50.30;;;;;;5033090;28;20053;-56
2021/11/10 03:18:04;;;;;;;2.22;1.15;;;21.60;50.30;;;;;;5035588;28;20452;-54
2021/11/10 03:20:30;;;;;;;1.83;1.10;;;21.60;50.30;;;;;;5038464;28;20037;-59
2021/11/10 03:22:56;;;;;;;2.03;1.00;;;21.50;50.30;;;;;;5035980;28;20041;-58
2021/11/10 03:25:21;;;;;;;1.48;1.00;;;21.50;50.40;;;;;;5032414;28;20485;-59
2021/11/10 03:27:47;;;;;;;1.60;1.05;;;21.50;50.40;;;;;;5036934;28;20025;-59
2021/11/10 03:30:13;;;;;;;2.08;1.25;;;21.50;50.40;;;;;;5040799;28;20036;-58
2021/11/10 03:32:38;;;;;;;1.48;1.10;;;21.50;50.40;;;;;;5033853;28;20117;-54
2021/11/10 03:35:04;;;;;;;1.60;1.05;;;21.50;50.40;;;;;;5033025;28;20721;-57
2021/11/10 03:37:30;;;;;;;1.60;1.00;;;21.50;50.40;;;;;;5029813;28;20040;-57
2021/11/10 03:39:56;;;;;;;1.70;1.10;;;21.50;50.50;;;;;;5037147;28;20032;-56
2021/11/10 03:42:22;;;;;;;1.50;1.15;;;21.50;50.50;;;;;;5034277;28;20056;-59
2021/11/10 03:44:48;;;;;;;1.60;1.10;;;21.40;50.40;;;;;;5029220;28;20091;-58
2021/11/10 03:47:14;;;;;;;2.08;1.20;;;21.40;50.50;;;;;;5035549;28;20034;-58
2021/11/10 03:49:39;;;;;;;1.40;1.00;;;21.40;50.50;;;;;;5032726;28;20060;-59
2021/11/10 03:52:05;;;;;;;1.80;1.10;;;21.40;50.50;;;;;;5034547;28;20598;-57
2021/11/10 03:54:31;;;;;;;1.27;1.00;;;21.40;50.50;;;;;;5040262;28;20100;-58
2021/11/10 03:56:56;;;;;;;1.83;1.10;;;21.40;50.60;;;;;;5033295;28;20040;-57
2021/11/10 03:59:22;;;;;;;1.67;1.10;;;21.40;50.60;;;;;;5035091;28;20125;-59
2021/11/10 04:01:48;;;;;;;2.00;1.20;;;21.40;50.60;;;;;;5032037;28;20357;-54
2021/11/10 04:04:14;;;;;;;1.58;0.95;;;21.40;50.60;;;;;;5038831;28;20037;-54
2021/11/10 04:06:39;;;;;;;2.05;1.40;;;21.40;50.60;;;;;;5027933;28;20041;-59
2021/11/10 04:09:06;;;;;;;1.48;1.02;;;21.30;50.60;;;;;;5040345;28;20108;-57
2021/11/10 04:11:31;;;;;;;1.77;1.05;;;21.30;50.60;;;;;;5037455;28;20033;-54
2021/11/10 04:13:57;;;;;;;1.80;1.13;;;21.30;50.60;;;;;;5033008;28;20029;-59
2021/11/10 04:16:23;;;;;;;1.45;1.10;;;21.30;50.70;;;;;;5032408;28;20351;-58
2021/11/10 04:18:51;;;;;;;1.45;1.00;;;21.30;50.70;;;;;;5028165;28;20025;-58
2021/11/10 04:21:18;;;;;;;1.58;1.10;;;21.30;50.70;;;;;;5001553;28;1081562;-56
2021/11/10 04:23:45;;;;;;;1.30;1.00;;;21.30;50.70;;;;;;5035091;28;20031;-56
2021/11/10 04:26:11;;;;;;;1.80;1.00;;;21.30;50.80;;;;;;5036393;28;20067;-59
2021/11/10 04:28:36;;;;;;;1.75;1.17;;;21.30;50.80;;;;;;5030816;28;20063;-56
2021/11/10 04:31:02;;;;;;;1.80;1.10;;;21.30;50.80;;;;;;5040079;28;20037;-58
2021/11/10 04:33:27;;;;;;;1.58;1.02;;;21.20;50.80;;;;;;5035547;28;20528;-59
2021/11/10 04:35:53;;;;;;;1.50;1.08;;;21.20;50.80;;;;;;5034657;28;20025;-58
2021/11/10 04:38:19;;;;;;;1.20;1.00;;;21.20;50.80;;;;;;5033055;28;20070;-54
2021/11/10 04:40:46;;;;;;;1.63;1.20;;;21.20;50.80;;;;;;5035357;28;20502;-54
2021/11/10 04:43:11;;;;;;;1.45;1.00;;;21.20;50.80;;;;;;5035099;28;20021;-58
2021/11/10 04:45:38;;;;;;;1.70;1.02;;;21.20;50.80;;;;;;5032828;28;20037;-58
2021/11/10 04:48:05;;;;;;;1.80;1.25;;;21.20;50.80;;;;;;5037084;28;20029;-59
2021/11/10 04:50:31;;;;;;;1.63;1.10;;;21.20;50.90;;;;;;5034661;28;20065;-55
2021/11/10 04:52:57;;;;;;;1.80;1.20;;;21.20;50.90;;;;;;5034385;28;20075;-56
2021/11/10 04:55:23;;;;;;;1.67;1.08;;;21.20;50.90;;;;;;5033894;28;20034;-54
2021/11/10 04:57:49;;;;;;;1.85;1.10;;;21.20;50.90;;;;;;5028378;28;20121;-58
2021/11/10 05:00:15;;;;;;;1.63;1.10;;;21.20;50.90;;;;;;5034481;28;20025;-56
2021/11/10 05:02:41;;;;;;;1.48;1.08;;;21.20;50.90;;;;;;5033672;28;20131;-57
2021/11/10 05:05:07;;;;;;;1.70;1.10;;;21.20;51.00;;;;;;5033088;28;20030;-56
2021/11/10 05:07:33;;;;;;;1.27;0.93;;;21.20;51.00;;;;;;5036145;28;20022;-59
2021/11/10 05:09:59;;;;;;;1.98;1.20;;;21.20;51.00;;;;;;5029725;28;20191;-59
2021/11/10 05:12:25;;;;;;;1.60;1.10;;;21.20;51.10;;;;;;5036678;28;20056;-54
2021/11/10 05:14:55;;;;;;;1.67;1.23;;;21.20;51.10;;;;;;5032303;28;20457;-56
2021/11/10 05:17:21;;;;;;;1.25;0.98;;;21.10;51.10;;;;;;5029218;28;20026;-58
2021/11/10 05:19:48;;;;;;;1.38;1.08;;;21.20;51.20;;;;;;5034280;28;20083;-59
2021/11/10 05:22:14;;;;;;;1.45;1.02;;;21.10;51.10;;;;;;5029721;28;20071;-57
2021/11/10 05:24:40;;;;;;;1.48;1.05;;;21.10;51.10;;;;;;5035247;28;20544;-59
2021/11/10 05:27:07;;;;;;;1.38;1.08;;;21.10;51.10;;;;;;5035634;28;20112;-57
2021/11/10 05:29:32;;;;;;;1.60;0.98;;;21.10;51.10;;;;;;5034837;28;20131;-58
2021/11/10 05:31:58;;;;;;;1.60;1.00;;;21.10;51.10;;;;;;5027551;28;20695;-56
2021/11/10 05:34:24;;;;;;;1.73;1.10;;;21.10;51.20;;;;;;5031599;28;20096;-57
2021/11/10 05:36:50;;;;;;;1.52;1.10;;;21.10;51.20;;;;;;5026247;28;20547;-57
2021/11/10 05:39:17;;;;;;;2.15;1.30;;;21.10;51.20;;;;;;5032707;28;20037;-56
2021/11/10 05:41:44;;;;;;;2.30;1.23;;;21.10;51.20;;;;;;5031531;28;20031;-58
2021/11/10 05:44:11;;;;;;;1.75;1.20;;;21.10;51.10;;;;;;5034639;28;20460;-57
2021/11/10 05:46:37;;;;;;;1.95;1.33;;;21.10;51.00;;;;;;5038177;28;20033;-58
2021/11/10 05:49:02;;;;;;;2.58;1.20;;;21.00;50.80;;;;;;5035358;28;20365;-56
2021/11/10 05:51:28;;;;;;;2.38;1.50;;;21.10;50.80;;;;;;5032361;28;20139;-57
2021/11/10 05:53:54;;;;;;;2.45;1.70;;;21.00;50.70;;;;;;5034854;28;20075;-52
2021/11/10 05:56:22;;;;;;;2.55;1.45;;;21.00;50.70;;;;;;5047605;28;20025;-57
2021/11/10 05:58:48;;;;;;;2.70;1.60;;;21.00;50.60;;;;;;5028594;28;20039;-56
2021/11/10 06:01:14;;;;;;;2.67;1.50;;;21.00;50.70;;;;;;5032537;28;20045;-58
2021/11/10 06:03:40;;;;;;;2.55;1.63;;;21.00;50.70;;;;;;5030070;28;20028;-59
2021/11/10 06:06:06;;;;;;;1.85;1.40;;;21.00;50.70;;;;;;5032465;28;20125;-58
2021/11/10 06:08:36;;;;;;;3.88;1.63;;;21.00;50.60;;;;;;5032132;28;20038;-56
2021/11/10 06:11:02;;;;;;;2.40;1.50;;;21.00;50.60;;;;;;5036449;28;20109;-57
2021/11/10 06:13:28;;;;;;;2.47;1.50;;;21.00;50.60;;;;;;5029371;28;20510;-56
2021/11/10 06:15:54;;;;;;;2.20;1.50;;;21.00;50.60;;;;;;5026431;28;20068;-58
2021/11/10 06:18:19;;;;;;;2.60;1.60;;;21.00;50.70;;;;;;5036153;28;20029;-54
2021/11/10 06:20:45;;;;;;;2.53;1.45;;;21.00;50.60;;;;;;5035098;28;20171;-59
2021/11/10 06:23:10;;;;;;;2.33;1.60;;;21.00;50.60;;;;;;5034694;28;20059;-56
2021/11/10 06:25:36;;;;;;;2.83;1.50;;;20.90;50.60;;;;;;5028624;28;20041;-57
2021/11/10 06:28:02;;;;;;;2.80;1.60;;;20.90;50.60;;;;;;5037493;28;20060;-53
2021/11/10 06:30:27;;;;;;;2.97;1.60;;;20.90;50.70;;;;;;5035981;28;20033;-57
2021/11/10 06:32:53;;;;;;;2.78;1.67;;;20.90;50.60;;;;;;5034202;28;20022;-53
2021/11/10 06:35:18;;;;;;;2.67;1.70;;;20.90;50.70;;;;;;5035706;28;20208;-57
2021/11/10 06:37:44;;;;;;;3.03;1.65;;;20.90;50.70;;;;;;5034622;28;20029;-58
2021/11/10 06:40:11;;;;;;;2.90;1.73;;;20.90;50.70;;;;;;5034214;28;20032;-58
2021/11/10 06:42:37;;;;;;;2.63;1.50;;;20.90;50.70;;;;;;5026327;28;20063;-54
2021/11/10 06:45:05;;;;;;;2.75;1.92;;;20.90;50.80;;;;;;5029627;28;20112;-57
2021/11/10 06:47:31;;;;;;;4.03;2.10;;;20.90;51.20;;;;;;5042615;28;20037;-54
2021/11/10 06:49:57;;;;;;;3.17;2.05;;;21.00;51.50;;;;;;5033981;28;20047;-54
2021/11/10 06:52:23;;;;;;;3.20;2.10;;;21.10;51.40;;;;;;5035794;28;20033;-58
2021/11/10 06:54:50;;;;;;;3.80;2.10;;;21.30;51.30;;;;;;5030888;28;20053;-57
2021/11/10 06:57:17;;;;;;;4.38;2.15;;;21.40;51.10;;;;;;5027638;28;20053;-57
2021/11/10 06:59:42;;;;;;;3.85;1.95;;;21.60;50.80;;;;;;5027987;28;20022;-58
2021/11/10 07:02:08;;;;;;;3.67;1.95;;;21.60;50.60;;;;;;5035267;28;20043;-58
2021/11/10 07:04:35;;;;;;;3.95;2.20;;;21.80;50.40;;;;;;5029750;28;20562;-57
2021/11/10 07:07:00;;;;;;;4.85;2.40;;;21.90;50.10;;;;;;5040196;28;20083;-56
2021/11/10 07:09:26;;;;;;;3.00;1.90;;;22.00;49.90;;;;;;5030551;28;20065;-57
2021/11/10 07:11:52;;;;;;;3.30;1.90;;;22.10;49.70;;;;;;5035943;28;20614;-58
2021/11/10 07:14:17;;;;;;;3.38;2.00;;;22.30;49.50;;;;;;5031209;28;20025;-59
2021/11/10 07:16:43;;;;;;;3.33;2.08;;;22.40;49.30;;;;;;5031352;28;20021;-58
2021/11/10 07:19:08;;;;;;;3.08;2.00;;;22.50;49.10;;;;;;5040439;28;20167;-53
2021/11/10 07:21:34;;;;;;;3.15;1.80;;;22.60;48.90;;;;;;5038687;28;20378;-55
2021/11/10 07:24:00;;;;;;;4.60;2.28;;;22.60;48.70;;;;;;5035271;28;20038;-55
2021/11/10 07:26:26;;;;;;;2.80;2.05;;;22.80;48.60;;;;;;5034599;28;20409;-56
2021/11/10 07:28:52;;;;;;;3.10;2.03;;;22.80;48.40;;;;;;5034291;28;20034;-58
2021/11/10 07:31:18;;;;;;;2.85;1.92;;;23.00;48.30;;;;;;5038283;28;20487;-54
2021/11/10 07:33:43;;;;;;;2.90;1.90;;;23.10;48.20;;;;;;5035286;28;20082;-59
2021/11/10 07:36:09;;;;;;;2.75;1.70;;;23.10;48.00;;;;;;5033490;28;20025;-58
2021/11/10 07:38:39;;;;;;;2.70;1.65;;;23.10;47.90;;;;;;5035613;28;20112;-59
2021/11/10 07:41:11;;;;;;;3.28;1.80;;;23.10;48.10;;;;;;5038212;28;20053;-54
2021/11/10 07:43:37;;;;;;;3.28;1.65;;;23.00;48.20;;;;;;5038115;28;20064;-55
2021/11/10 07:46:12;;;;;;;2.78;1.75;;;22.90;48.30;;;;;;5033269;28;20256;-59
2021/11/10 07:48:40;;;;;;;2.65;1.70;;;22.90;48.40;;;;;;5035976;28;20240;-56
2021/11/10 07:51:06;;;;;;;3.03;1.70;;;22.90;48.60;;;;;;5038007;28;20150;-57
2021/11/10 07:53:32;;;;;;;2.00;1.40;;;22.80;48.60;;;;;;5038133;28;20063;-58
2021/11/10 07:55:57;;;;;;;2.35;1.50;;;22.80;48.60;;;;;;5036399;28;20029;-56
2021/11/10 07:58:23;;;;;;;2.80;1.50;;;22.80;48.60;;;;;;5033670;28;20025;-57
2021/11/10 08:00:48;;;;;;;2.63;1.65;;;22.80;48.60;;;;;;5036050;28;20802;-59
2021/11/10 08:03:14;;;;;;;2.88;1.88;;;22.80;48.70;;;;;;5038710;28;20030;-57
2021/11/10 08:05:39;;;;;;;2.33;1.52;;;22.80;48.60;;;;;;5037254;28;20033;-57
2021/11/10 08:08:05;;;;;;;2.13;1.50;;;22.80;48.70;;;;;;5030950;28;20041;-58
2021/11/10 08:10:31;;;;;;;2.42;1.48;;;22.80;48.70;;;;;;5040411;28;20478;-56
2021/11/10 08:12:57;;;;;;;2.30;1.45;;;22.80;48.70;;;;;;5029217;28;20033;-52
2021/11/10 08:15:22;;;;;;;2.65;1.55;;;22.80;48.70;;;;;;5034097;28;20025;-56
2021/11/10 08:17:48;;;;;;;2.20;1.50;;;22.80;48.70;;;;;;5034423;28;20632;-59
2021/11/10 08:20:16;;;;;;;2.38;1.50;;;22.80;48.70;;;;;;5038760;28;20025;-58
2021/11/10 08:22:43;;;;;;;2.38;1.50;;;22.80;48.70;;;;;;5036411;28;20033;-59
2021/11/10 08:25:10;;;;;;;2.60;1.80;;;22.80;48.70;;;;;;5035478;28;20065;-59
2021/11/10 08:27:36;;;;;;;2.70;1.60;;;22.80;48.80;;;;;;5033031;28;20025;-58
2021/11/10 08:30:08;;;;;;;2.40;1.60;;;22.80;48.70;;;;;;5036788;28;20509;-59
2021/11/10 08:32:35;;;;;;;2.30;1.55;;;22.80;48.80;;;;;;5031056;28;20674;-58
2021/11/10 08:35:01;;;;;;;3.85;1.63;;;22.80;49.00;;;;;;5036220;28;20021;-56
2021/11/10 08:37:27;;;;;;;1.95;1.40;;;22.80;49.00;;;;;;5039961;28;20338;-58
2021/11/10 08:39:53;;;;;;;2.22;1.50;;;22.80;49.10;;;;;;5034148;28;20036;-59
2021/11/10 08:42:18;;;;;;;2.45;1.45;;;22.80;49.10;;;;;;5035559;28;20808;-56
2021/11/10 08:44:47;;;;;;;2.50;1.60;;;22.80;49.00;;;;;;5036307;28;20033;-59
2021/11/10 08:47:12;;;;;;;2.40;1.70;;;22.90;48.90;;;;;;5025841;28;20067;-58
2021/11/10 08:49:39;;;;;;;2.97;1.73;;;22.90;48.90;;;;;;5036449;28;20041;-57
2021/11/10 08:52:04;;;;;;;3.00;1.67;;;22.90;48.80;;;;;;5034554;28;20421;-57
2021/11/10 08:54:30;;;;;;;2.33;1.40;;;22.80;48.90;;;;;;5035507;28;20029;-57
2021/11/10 08:56:58;;;;;;;3.20;1.45;;;22.80;49.10;;;;;;5034157;28;20049;-57
2021/11/10 08:59:24;;;;;;;2.33;1.50;;;22.80;49.10;;;;;;5033258;28;20034;-57
2021/11/10 09:01:54;;;;;;;2.42;1.60;;;22.90;49.10;;;;;;5031088;28;20041;-58
2021/11/10 09:04:21;;;;;;;2.15;1.45;;;22.90;49.00;;;;;;5035362;28;20052;-58
2021/11/10 09:06:48;;;;;;;2.90;1.70;;;22.90;48.90;;;;;;5036492;28;20130;-58
2021/11/10 09:09:15;;;;;;;3.45;1.70;;;22.90;48.90;;;;;;5030116;28;20467;-58
2021/11/10 09:11:41;;;;;;;2.70;1.55;;;22.90;48.90;;;;;;5036447;28;20044;-57
2021/11/10 09:14:06;;;;;;;4.45;1.60;;;22.90;48.90;;;;;;5036467;28;20030;-58
2021/11/10 09:16:33;;;;;;;2.47;1.65;;;22.90;49.40;;;;;;5028991;28;20029;-56
2021/11/10 09:18:58;;;;;;;2.20;1.60;;;22.90;48.80;;;;;;5032774;28;20026;-58
2021/11/10 09:21:25;;;;;;;2.28;1.55;;;22.90;48.80;;;;;;5039985;28;20399;-55
2021/11/10 09:23:50;;;;;;;2.33;1.58;;;22.90;48.80;;;;;;5034748;28;20100;-58
2021/11/10 09:26:16;;;;;;;1.80;1.23;;;22.90;48.90;;;;;;5038581;28;20374;-54
2021/11/10 09:28:42;;;;;;;2.63;1.60;;;22.90;49.00;;;;;;5035302;28;20021;-56
2021/11/10 09:31:08;;;;;;;2.20;1.60;;;22.90;49.00;;;;;;5035659;28;20033;-59
2021/11/10 09:33:36;;;;;;;2.08;1.40;;;22.90;49.00;;;;;;5035499;28;20171;-59
2021/11/10 09:36:03;;;;;;;2.40;1.50;;;22.90;49.20;;;;;;5032219;28;20033;-54
2021/11/10 09:38:28;;;;;;;2.10;1.33;;;22.90;49.20;;;;;;5033871;28;20042;-58
2021/11/10 09:40:59;;;;;;;3.08;1.50;;;22.80;49.10;;;;;;5034839;28;20425;-57
2021/11/10 09:43:32;;;;;;;2.00;1.30;;;22.90;49.20;;;;;;5032773;28;20171;-57
2021/11/10 09:45:59;;;;;;;2.05;1.27;;;22.90;49.30;;;;;;5038206;28;20339;-59
2021/11/10 09:48:26;;;;;;;2.45;1.60;;;22.90;49.30;;;;;;5030439;28;20132;-59
2021/11/10 09:50:52;;;;;;;2.20;1.40;;;22.90;49.30;;;;;;5033012;28;20090;-59
2021/11/10 09:53:19;;;;;;;2.97;1.50;;;22.80;49.30;;;;;;5038685;28;20041;-58
2021/11/10 09:55:45;;;;;;;2.22;1.30;;;22.90;49.30;;;;;;5031760;28;20029;-58
2021/11/10 09:58:11;;;;;;;2.47;1.60;;;22.90;49.20;;;;;;5024994;28;20113;-58
2021/11/10 10:00:48;;;;;;;2.50;1.70;;;22.90;49.30;;;;;;5032410;28;20063;-56
2021/11/10 10:03:15;;;;;;;2.88;1.60;;;22.90;49.20;;;;;;5028747;28;20032;-55
2021/11/10 10:05:42;;;;;;;2.60;1.70;;;22.90;49.10;;;;;;5032329;28;20082;-57
2021/11/10 10:08:09;;;;;;;2.40;1.70;;;22.90;49.10;;;;;;5031014;28;20021;-58
2021/11/10 10:10:34;;;;;;;2.42;1.42;;;22.90;49.00;;;;;;5037477;28;20350;-58
2021/11/10 10:13:02;;;;;;;2.65;1.50;;;22.90;49.00;;;;;;5030638;28;20025;-52
2021/11/10 10:15:31;;;;;;;2.38;1.50;;;22.90;49.00;;;;;;5032540;28;20531;-56
2021/11/10 10:17:58;;;;;;;;;;;22.90;49.00;;;;;;5036919;28;20037;-58
2021/11/10 10:20:36;;;;;;;2.15;1.35;;;22.90;49.00;;;;;;5040891;28;20106;-58
2021/11/10 10:23:11;;;;;;;3.67;1.75;;;22.90;48.90;;;;;;5034598;28;20454;-54
2021/11/10 10:25:41;;;;;;;1.77;1.40;;;22.90;48.90;;;;;;5030005;28;20402;-58
2021/11/10 10:28:10;;;;;;;2.00;1.38;;;22.90;48.90;;;;;;5031736;28;20025;-59
2021/11/10 10:30:42;;;;;;;2.55;1.55;;;22.90;49.00;;;;;;5032483;28;20065;-58
2021/11/10 10:33:18;;;;;;;2.00;1.38;;;22.90;48.90;;;;;;5032556;28;20087;-58
2021/11/10 10:35:54;;;;;;;2.28;1.40;;;23.00;48.90;;;;;;5039768;28;20476;-60
2021/11/10 10:38:24;;;;;;;2.30;1.50;;;22.90;48.90;;;;;;5030461;28;20104;-58
2021/11/10 10:40:51;;;;;;;;;;;23.00;49.00;;;;;;5038064;28;20033;-55
2021/11/10 10:43:23;;;;;;;1.98;1.45;;;23.00;49.10;;;;;;5031772;28;19925;-59
2021/11/10 10:45:51;;;;;;;2.70;1.70;;;23.00;49.00;;;;;;5033872;28;20094;-58
2021/11/10 10:48:28;;;;;;;2.33;1.40;;;23.00;49.00;;;;;;5031378;28;20034;-57
2021/11/10 10:50:56;;;;;;;1.95;1.40;;;23.00;49.50;;;;;;5043007;28;20702;-57
2021/11/10 10:53:38;;;;;;;2.40;1.80;;;23.00;49.10;;;;;;5034761;28;20037;-58
2021/11/10 10:56:21;;;;;;;2.55;1.60;;;23.00;49.10;;;;;;5034201;28;20120;-57
2021/11/10 10:58:48;;;;;;;2.53;1.63;;;23.00;49.00;;;;;;5040192;28;20089;-58
2021/11/10 11:01:19;;;;;;;2.03;1.40;;;23.00;49.10;;;;;;5037499;28;20607;-57
2021/11/10 11:03:50;;;;;;;2.17;1.38;;;23.00;49.00;;;;;;5040253;28;20037;-56
2021/11/10 11:06:29;;;;;;;1.75;1.20;;;23.00;49.10;;;;;;5034393;28;20167;-55
2021/11/10 11:08:58;;;;;;;2.30;1.50;;;23.00;49.10;;;;;;5034664;28;20031;-58
2021/11/10 11:11:38;;;;;;;1.95;1.40;;;23.00;49.10;;;;;;5045898;28;20059;-58
2021/11/10 11:14:14;;;;;;;2.17;1.48;;;23.00;49.10;;;;;;5035113;28;20025;-56
2021/11/10 11:16:42;;;;;;;2.10;1.30;;;23.00;49.10;;;;;;5039840;28;20579;-56
2021/11/10 11:19:12;;;;;;;2.35;1.60;;;23.00;49.10;;;;;;5033595;28;20401;-56
2021/11/10 11:21:56;;;;;;;2.20;1.40;;;23.10;49.10;;;;;;5039325;28;20037;-56
2021/11/10 11:24:40;;;;;;;2.08;1.40;;;23.10;49.10;;;;;;5039023;28;20065;-58
2021/11/10 11:27:25;;;;;;;1.88;1.27;;;23.10;49.10;;;;;;5040693;28;20032;-58
2021/11/10 11:30:10;;;;;;;2.42;1.50;;;23.10;49.20;;;;;;5044376;28;20020;-58
2021/11/10 11:32:40;;;;;;;2.03;1.20;;;23.10;49.30;;;;;;5037206;28;20064;-55
2021/11/10 11:35:08;;;;;;;;;;;23.10;49.30;;;;;;5037476;28;20029;-56
2021/11/10 11:37:34;;;;;;;2.70;1.40;;;23.10;49.30;;;;;;5040038;28;19931;-59
2021/11/10 11:40:16;;;;;;;2.42;1.45;;;23.10;49.20;;;;;;5043740;28;20534;-58
2021/11/10 11:42:52;;;;;;;2.35;1.52;;;23.00;49.20;;;;;;5031164;28;20432;-58
2021/11/10 11:45:19;;;;;;;2.22;1.30;;;23.00;49.10;;;;;;5041084;28;20029;-57
2021/11/10 11:47:58;;;;;;;2.17;1.40;;;23.00;49.10;;;;;;5032403;28;20025;-58
2021/11/10 11:50:24;;;;;;;1.52;1.15;;;23.00;49.00;;;;;;5030873;28;20025;-58
2021/11/10 11:52:51;;;;;;;2.08;1.30;;;23.00;48.90;;;;;;5028841;28;20540;-57
2021/11/10 11:55:45;;;;;;;1.73;1.23;;;23.00;49.00;;;;;;5031436;28;20115;-57
2021/11/10 11:58:19;;;;;;;2.65;1.50;;;23.00;49.00;;;;;;5028356;28;20022;-57
2021/11/10 12:00:50;;;;;;;2.17;1.40;;;23.00;49.10;;;;;;5030407;28;20109;-58
2021/11/10 12:03:28;;;;;;;2.28;1.38;;;23.00;49.10;;;;;;5035017;28;20049;-58
2021/11/10 12:06:20;;;;;;;2.30;1.52;;;23.00;49.10;;;;;;5040401;28;20033;-58
2021/11/10 12:09:03;;;;;;;2.25;1.50;;;23.00;49.00;;;;;;5032881;28;20174;-57
2021/11/10 12:11:35;;;;;;;1.90;1.50;;;23.00;49.10;;;;;;5032365;28;20065;-57
2021/11/10 12:14:19;;;;;;;2.65;1.58;;;23.00;49.00;;;;;;5032371;28;20041;-58
2021/11/10 12:16:47;;;;;;;2.20;1.40;;;23.00;49.00;;;;;;5044966;28;20119;-58
2021/11/10 12:19:38;;;;;;;2.40;1.52;;;23.10;49.10;;;;;;5034089;28;20107;-58
2021/11/10 12:22:32;;;;;;;2.30;1.30;;;23.10;49.10;;;;;;5030116;28;20675;-57
2021/11/10 12:25:02;;;;;;;2.22;1.38;;;23.10;49.20;;;;;;5039680;28;20036;-56
2021/11/10 12:27:31;;;;;;;2.25;1.50;;;23.10;49.20;;;;;;5032180;28;20037;-56
2021/11/10 12:30:00;;;;;;;1.95;1.40;;;23.10;49.70;;;;;;5039678;28;20056;-56
2021/11/10 12:32:50;;;;;;;2.38;1.30;;;23.10;49.20;;;;;;5030592;28;20057;-58
2021/11/10 12:35:34;;;;;;;1.73;1.23;;;23.10;49.20;;;;;;5031426;28;20048;-56
2021/11/10 12:38:03;;;;;;;2.88;1.30;;;23.10;49.30;;;;;;5038359;28;20052;-58
2021/11/10 12:40:44;;;;;;;1.95;1.40;;;23.10;49.30;;;;;;5034681;28;20025;-57
2021/11/10 12:43:12;;;;;;;1.85;1.30;;;23.10;49.30;;;;;;5032637;28;20033;-58
2021/11/10 12:45:41;;;;;;;2.20;1.40;;;23.10;49.30;;;;;;5037212;28;20486;-58
2021/11/10 12:48:26;;;;;;;2.75;1.70;;;23.10;49.30;;;;;;5031145;28;20048;-55
2021/11/10 12:50:53;;;;;;;3.58;1.65;;;23.10;49.30;;;;;;5036105;28;20393;-57
2021/11/10 12:53:46;;;;;;;2.20;1.35;;;23.10;49.30;;;;;;5041273;28;20045;-58